KHBG/HBG METAR and TAF weather

Enter ICAO airport designator
Station Type Date Time Source
KHBG METAR 2019/08/24 21:53 UTC NOAA

KHBG 242153Z AUTO 02004KT 10SM CLR 33/23 A2994 RMK AO2 SLP135 T03280228


Station Type Date Time Source
KHBG Decoded METAR 2019/08/24 21:53 UTC NOAA

Station name not available
Aug 24, 2019 - 05:53 PM EDT / 2019.08.24 2153 UTC
Wind: from the NNE (020 degrees) at 5 MPH (4 KT):0
Visibility: 10 mile(s):0
Sky conditions: clear
Temperature: 91.0 F (32.8 C)
Heat index: 99.1 F (37.3 C):1
Dew Point: 73.0 F (22.8 C)
Relative Humidity: 55%
Pressure (altimeter): 29.94 in. Hg (1013 hPa)
ob: KHBG 242153Z AUTO 02004KT 10SM CLR 33/23 A2994 RMK AO2 SLP135 T03280228
cycle: 22

Station Type Date Time Source
KHBG TAF 2019/08/24 18:54 UTC NOAA

TAF KHBG 241752Z 2418/2518 VRB03KT P6SM SCT035
FM242000 20005KT P6SM -SHRA VCTS SCT040CB BKN100
FM242300 20003KT P6SM VCSH SCT040
FM250200 00000KT P6SM FEW025 SCT040

Example: see airport list